Time;durP1;ratioP1;P1;durP2;ratioP2;P2;SDS_P1;SDS_P2;PMS_P1;PMS_P2;Temp;Humidity;BMP_temperature;BMP_pressure;BME280_temperature;BME280_humidity;BME280_pressure;Samples;Min_cycle;Max_cycle;Signal;HPM_P1;HPM_P2
2022/01/08 00:00:31;;;;;;;16.47;7.20;;;2.80;99.90;;;;;;5089809;28;20266;-62
2022/01/08 00:02:58;;;;;;;13.63;6.63;;;2.80;99.90;;;;;;5083420;28;20200;-62
2022/01/08 00:05:25;;;;;;;12.40;5.70;;;2.80;99.90;;;;;;5082199;28;20193;-61
2022/01/08 00:07:54;;;;;;;14.10;6.47;;;2.80;99.90;;;;;;5076393;28;20200;-62
2022/01/08 00:10:22;;;;;;;12.20;5.33;;;2.80;99.90;;;;;;5077341;28;20197;-61
2022/01/08 00:12:51;;;;;;;11.27;5.57;;;2.70;99.90;;;;;;5074500;28;20204;-62
2022/01/08 00:15:21;;;;;;;14.07;5.90;;;2.80;99.90;;;;;;5068133;28;20303;-62
2022/01/08 00:17:48;;;;;;;10.60;5.30;;;2.70;99.90;;;;;;5074908;28;20193;-62
2022/01/08 00:20:15;;;;;;;12.90;6.63;;;2.70;99.90;;;;;;5070160;28;20720;-61
2022/01/08 00:22:43;;;;;;;11.33;5.30;;;2.70;99.90;;;;;;5087801;28;20607;-61
2022/01/08 00:25:11;;;;;;;8.90;4.77;;;2.70;99.90;;;;;;5085073;28;20671;-61
2022/01/08 00:27:38;;;;;;;8.03;4.87;;;2.70;99.90;;;;;;5079900;28;20274;-62
2022/01/08 00:30:08;;;;;;;11.03;5.20;;;2.80;99.90;;;;;;5092837;28;20245;-61
2022/01/08 00:32:35;;;;;;;7.43;4.37;;;2.80;99.90;;;;;;5087942;28;20238;-62
2022/01/08 00:35:02;;;;;;;14.43;5.80;;;2.80;99.90;;;;;;5076366;28;20586;-62
2022/01/08 00:37:29;;;;;;;11.33;6.00;;;2.80;99.90;;;;;;5086496;28;20197;-61
2022/01/08 00:39:56;;;;;;;10.67;5.10;;;2.80;99.90;;;;;;5076344;28;20193;-60
2022/01/08 00:42:23;;;;;;;8.20;4.93;;;2.90;99.90;;;;;;5079141;28;20188;-65
2022/01/08 00:44:50;;;;;;;6.30;4.53;;;2.90;99.90;;;;;;5083121;28;20207;-62
2022/01/08 00:47:19;;;;;;;10.53;5.23;;;2.90;99.90;;;;;;5087871;28;20188;-61
2022/01/08 00:49:46;;;;;;;7.53;4.80;;;2.90;99.90;;;;;;5084588;28;20260;-62
2022/01/08 00:52:13;;;;;;;10.30;5.43;;;2.90;99.90;;;;;;5084606;28;20208;-62
2022/01/08 00:54:40;;;;;;;10.00;5.23;;;2.90;99.90;;;;;;5090000;28;20228;-62
2022/01/08 00:57:08;;;;;;;11.27;5.20;;;2.90;99.90;;;;;;5070201;28;20216;-62
2022/01/08 00:59:35;;;;;;;9.83;5.10;;;2.90;99.90;;;;;;5082687;28;20661;-61
2022/01/08 01:02:03;;;;;;;9.93;5.20;;;2.90;99.90;;;;;;5087422;28;20583;-62
2022/01/08 01:04:32;;;;;;;10.63;5.40;;;2.80;99.90;;;;;;5069849;28;20209;-62
2022/01/08 01:06:59;;;;;;;9.00;4.90;;;2.80;99.90;;;;;;5081812;28;20192;-61
2022/01/08 01:09:26;;;;;;;9.53;4.80;;;2.80;99.90;;;;;;5090118;28;20189;-61
2022/01/08 01:11:57;;;;;;;8.53;4.80;;;2.80;99.90;;;;;;5084187;28;20257;-60
2022/01/08 01:14:24;;;;;;;14.00;6.43;;;2.80;99.90;;;;;;5091205;28;20195;-62
2022/01/08 01:16:51;;;;;;;14.20;6.43;;;2.80;99.90;;;;;;5081631;28;20212;-60
2022/01/08 01:19:19;;;;;;;18.17;7.83;;;2.80;99.90;;;;;;5089014;28;20201;-62
2022/01/08 01:21:47;;;;;;;12.07;6.73;;;2.70;99.90;;;;;;5089046;28;20271;-61
2022/01/08 01:24:18;;;;;;;11.57;6.20;;;2.70;99.90;;;;;;5079661;28;20192;-62
2022/01/08 01:27:06;;;;;;;12.70;6.30;;;2.70;99.90;;;;;;5081481;28;20264;-62
2022/01/08 01:29:41;;;;;;;13.23;7.00;;;2.70;99.90;;;;;;5087931;28;20660;-62
2022/01/08 01:43:24;;;;;;;12.00;6.43;;;2.80;99.90;;;;;;5073036;28;20475;-63
2022/01/08 01:48:36;;;;;;;14.30;6.80;;;2.70;99.90;;;;;;5081617;28;20191;-61
2022/01/08 01:51:03;;;;;;;13.30;6.17;;;2.70;99.90;;;;;;5085941;28;20241;-62
2022/01/08 01:53:32;;;;;;;9.43;5.70;;;2.70;99.90;;;;;;5056422;28;20204;-62
2022/01/08 01:55:59;;;;;;;14.27;6.30;;;2.70;99.90;;;;;;5069148;28;20232;-61
2022/01/08 01:58:26;;;;;;;8.20;4.63;;;2.60;99.90;;;;;;5068771;28;20193;-62
2022/01/08 02:00:53;;;;;;;9.83;5.67;;;2.70;99.90;;;;;;5065486;28;20197;-62
2022/01/08 02:03:20;;;;;;;9.67;5.13;;;2.70;99.90;;;;;;5065299;28;20204;-62
2022/01/08 02:05:47;;;;;;;8.73;4.93;;;2.70;99.90;;;;;;5056465;28;20267;-61
2022/01/08 02:08:15;;;;;;;9.90;5.30;;;2.70;99.90;;;;;;5062271;28;20618;-61
2022/01/08 02:10:43;;;;;;;10.33;5.07;;;2.80;99.90;;;;;;5057860;28;20209;-60
2022/01/08 02:13:10;;;;;;;10.13;5.63;;;2.80;99.90;;;;;;5059930;28;20760;-61
2022/01/08 02:15:39;;;;;;;14.23;7.17;;;2.10;99.90;;;;;;5064382;28;20212;-61
2022/01/08 02:18:07;;;;;;;16.03;7.47;;;2.80;99.90;;;;;;5058257;28;20272;-62
2022/01/08 02:20:35;;;;;;;12.17;5.93;;;2.80;99.90;;;;;;5065488;28;20200;-61
2022/01/08 02:23:02;;;;;;;11.23;6.30;;;2.80;99.90;;;;;;5063202;28;20288;-60
2022/01/08 02:25:29;;;;;;;10.57;5.40;;;2.80;99.90;;;;;;5057917;28;20259;-62
2022/01/08 02:27:57;;;;;;;10.27;5.80;;;2.90;99.90;;;;;;5064234;28;20206;-61
2022/01/08 02:30:24;;;;;;;9.23;5.33;;;2.90;99.90;;;;;;5057584;28;20216;-62
2022/01/08 02:32:51;;;;;;;9.73;5.30;;;2.90;99.90;;;;;;5061581;28;20197;-60
2022/01/08 02:35:21;;;;;;;14.23;7.17;;;2.90;99.90;;;;;;5053856;28;20300;-62
2022/01/08 02:37:50;;;;;;;12.77;6.67;;;2.90;99.90;;;;;;5068949;28;20185;-61
2022/01/08 02:40:19;;;;;;;11.60;5.83;;;2.80;99.90;;;;;;5060977;28;20201;-62
2022/01/08 02:42:51;;;;;;;12.47;5.73;;;2.80;99.90;;;;;;5061662;28;20201;-61
2022/01/08 02:45:18;;;;;;;10.10;4.87;;;2.80;99.90;;;;;;5063768;28;20201;-62
2022/01/08 02:47:46;;;;;;;8.07;4.53;;;2.80;99.90;;;;;;5065859;28;20633;-62
2022/01/08 02:50:13;;;;;;;6.67;4.47;;;2.80;99.90;;;;;;5057388;28;20672;-62
2022/01/08 02:52:44;;;;;;;11.83;6.17;;;2.90;99.90;;;;;;5060547;28;20199;-62
2022/01/08 02:55:16;;;;;;;13.33;6.47;;;2.90;99.90;;;;;;5067664;28;20233;-62
2022/01/08 02:57:43;;;;;;;18.00;8.53;;;2.90;99.90;;;;;;5086080;28;20619;-62
2022/01/08 03:00:15;;;;;;;17.20;8.67;;;2.90;99.90;;;;;;5078141;28;20193;-62
2022/01/08 03:02:43;;;;;;;21.67;9.63;;;2.90;99.90;;;;;;5081252;28;20423;-63
2022/01/08 03:05:11;;;;;;;12.47;6.93;;;2.90;99.90;;;;;;5077027;28;20193;-62
2022/01/08 03:07:39;;;;;;;14.17;7.00;;;2.90;99.90;;;;;;5080829;28;20192;-61
2022/01/08 03:10:07;;;;;;;12.77;6.50;;;2.90;99.90;;;;;;5076164;28;20683;-62
2022/01/08 03:12:38;;;;;;;9.20;5.77;;;2.90;99.90;;;;;;5074850;28;20207;-62
2022/01/08 03:15:07;;;;;;;16.00;7.47;;;2.90;99.90;;;;;;5074081;28;20192;-62
2022/01/08 03:17:34;;;;;;;12.27;6.43;;;2.90;99.90;;;;;;5073099;28;20305;-63
2022/01/08 03:20:06;;;;;;;9.93;5.60;;;2.90;99.90;;;;;;5072300;28;20208;-62
2022/01/08 03:22:34;;;;;;;10.30;5.57;;;2.90;99.90;;;;;;5086778;28;20196;-62
2022/01/08 03:25:02;;;;;;;7.43;4.90;;;2.90;99.90;;;;;;5090901;28;20196;-62
2022/01/08 03:27:29;;;;;;;7.57;5.03;;;2.90;99.90;;;;;;5083949;28;20189;-62
2022/01/08 03:29:58;;;;;;;12.67;6.50;;;2.90;99.90;;;;;;5088351;28;20245;-61
2022/01/08 03:32:25;;;;;;;11.93;5.50;;;2.90;99.90;;;;;;5077701;28;20188;-61
2022/01/08 03:34:53;;;;;;;10.00;5.83;;;2.90;99.90;;;;;;5082148;28;20193;-62
2022/01/08 03:37:20;;;;;;;10.10;5.67;;;2.90;99.90;;;;;;5085298;28;20210;-62
2022/01/08 03:39:47;;;;;;;13.13;6.70;;;3.00;99.90;;;;;;5055024;28;20270;-61
2022/01/08 03:42:14;;;;;;;11.77;6.03;;;3.00;99.90;;;;;;5075645;28;20196;-61
2022/01/08 03:44:41;;;;;;;12.70;6.10;;;3.00;99.90;;;;;;5082120;28;20211;-61
2022/01/08 03:47:29;;;;;;;11.67;6.83;;;3.00;99.90;;;;;;5079512;28;20195;-62
2022/01/08 03:49:57;;;;;;;14.80;7.53;;;3.00;99.90;;;;;;5083841;28;20200;-62
2022/01/08 03:52:24;;;;;;;11.33;6.13;;;2.90;99.90;;;;;;5082606;28;20238;-63
2022/01/08 03:54:51;;;;;;;10.30;5.80;;;2.90;99.90;;;;;;5076279;28;20243;-64
2022/01/08 03:57:18;;;;;;;10.63;5.60;;;2.90;99.90;;;;;;5077203;28;20249;-62
2022/01/08 03:59:45;;;;;;;10.03;6.00;;;2.90;99.90;;;;;;5064594;28;20200;-62
2022/01/08 04:02:14;;;;;;;11.53;5.60;;;2.90;99.90;;;;;;5078457;28;20657;-62
2022/01/08 04:04:41;;;;;;;11.00;6.13;;;2.90;99.90;;;;;;5083744;28;20188;-62
2022/01/08 04:07:08;;;;;;;9.67;5.57;;;2.90;99.90;;;;;;5077907;28;20201;-63
2022/01/08 04:09:35;;;;;;;10.97;5.37;;;2.90;99.90;;;;;;5090000;28;20192;-62
2022/01/08 04:12:05;;;;;;;7.13;4.63;;;2.90;99.90;;;;;;5089314;28;20242;-63
2022/01/08 04:14:42;;;;;;;6.30;4.60;;;2.90;99.90;;;;;;5088490;28;20228;-61
2022/01/08 04:17:09;;;;;;;11.03;5.37;;;2.90;99.90;;;;;;5076733;28;20212;-62
2022/01/08 04:19:38;;;;;;;5.67;4.03;;;2.90;99.90;;;;;;5072837;28;20572;-62
2022/01/08 04:22:11;;;;;;;6.00;3.80;;;3.00;99.90;;;;;;5091219;28;20189;-62
2022/01/08 04:24:38;;;;;;;13.13;7.03;;;3.00;99.90;;;;;;5093871;28;20199;-63
2022/01/08 04:27:06;;;;;;;13.37;6.40;;;3.10;99.90;;;;;;5080881;28;20617;-61
2022/01/08 04:29:33;;;;;;;9.57;5.70;;;3.10;99.90;;;;;;5061838;28;20564;-62
2022/01/08 04:32:00;;;;;;;14.63;8.20;;;3.10;99.90;;;;;;5074597;28;20207;-63
2022/01/08 04:34:27;;;;;;;16.80;8.40;;;3.20;99.90;;;;;;5093245;28;20265;-63
2022/01/08 04:36:56;;;;;;;15.93;8.33;;;3.10;99.90;;;;;;5055751;28;20209;-63
2022/01/08 04:39:23;;;;;;;23.07;11.70;;;3.10;99.90;;;;;;5088664;28;20606;-62
2022/01/08 04:41:50;;;;;;;17.70;9.07;;;3.10;99.90;;;;;;5081440;28;20196;-63
2022/01/08 04:44:17;;;;;;;14.13;8.57;;;3.20;99.90;;;;;;5091901;28;20196;-62
2022/01/08 04:46:44;;;;;;;12.70;7.30;;;3.10;99.90;;;;;;5079771;28;20218;-62
2022/01/08 04:49:11;;;;;;;9.43;6.20;;;3.10;99.90;;;;;;5072329;28;20591;-60
2022/01/08 04:51:39;;;;;;;8.83;5.33;;;3.10;99.90;;;;;;5071701;28;20245;-62
2022/01/08 04:54:07;;;;;;;8.30;5.17;;;3.10;99.90;;;;;;5090501;28;20571;-61
2022/01/08 04:56:34;;;;;;;6.30;4.70;;;3.10;99.90;;;;;;5091090;28;20257;-62
2022/01/08 04:59:01;;;;;;;12.03;6.87;;;3.20;99.90;;;;;;5091749;28;20208;-61
2022/01/08 05:01:28;;;;;;;7.57;5.10;;;3.20;99.90;;;;;;5090069;28;20204;-63
2022/01/08 05:03:56;;;;;;;7.57;4.50;;;3.20;99.90;;;;;;5089122;28;20199;-62
2022/01/08 05:06:23;;;;;;;10.60;6.23;;;3.10;99.90;;;;;;5089296;28;20203;-63
2022/01/08 05:08:50;;;;;;;7.03;4.90;;;3.20;99.90;;;;;;5089236;28;20274;-63
2022/01/08 05:11:18;;;;;;;5.90;4.60;;;3.20;99.90;;;;;;5090929;28;20192;-62
2022/01/08 05:13:46;;;;;;;5.97;4.30;;;3.20;99.90;;;;;;5089959;28;20242;-62
2022/01/08 05:16:13;;;;;;;5.90;4.30;;;3.20;99.90;;;;;;5082758;28;20505;-63
2022/01/08 05:18:41;;;;;;;9.10;6.10;;;3.20;99.90;;;;;;5086874;28;20242;-62
2022/01/08 05:21:18;;;;;;;8.80;5.03;;;3.20;99.90;;;;;;5091839;28;20694;-63
2022/01/08 05:23:45;;;;;;;19.37;10.53;;;3.20;99.90;;;;;;5086502;28;20682;-63
2022/01/08 05:26:12;;;;;;;18.27;9.27;;;3.20;99.90;;;;;;5071998;28;20189;-63
2022/01/08 05:28:41;;;;;;;10.27;6.80;;;3.20;99.90;;;;;;5080124;28;20193;-62
2022/01/08 05:31:08;;;;;;;10.10;6.07;;;3.20;99.90;;;;;;5061128;28;20200;-62
2022/01/08 05:33:35;;;;;;;8.13;5.27;;;3.10;99.90;;;;;;5075369;28;20193;-61
2022/01/08 05:36:03;;;;;;;8.97;5.50;;;3.30;99.90;;;;;;5085909;28;20196;-61
2022/01/08 05:38:30;;;;;;;8.67;5.80;;;3.20;99.90;;;;;;5080778;28;20196;-61
2022/01/08 05:40:57;;;;;;;9.83;5.10;;;3.20;99.90;;;;;;5071400;28;20295;-62
2022/01/08 05:43:24;;;;;;;8.07;4.57;;;3.20;99.90;;;;;;5091597;28;20257;-61
2022/01/08 05:45:53;;;;;;;8.07;5.53;;;3.10;99.90;;;;;;5089846;28;20630;-62
2022/01/08 05:48:21;;;;;;;7.00;4.87;;;3.20;99.90;;;;;;5087731;28;20234;-62
2022/01/08 05:50:49;;;;;;;7.50;4.80;;;3.10;99.90;;;;;;5089168;28;20705;-62
2022/01/08 05:53:17;;;;;;;6.10;4.43;;;3.10;99.90;;;;;;5078776;28;20200;-61
2022/01/08 05:55:44;;;;;;;7.07;4.53;;;3.10;99.90;;;;;;5072005;28;20248;-61
2022/01/08 05:58:11;;;;;;;5.47;3.40;;;3.10;99.90;;;;;;5080804;28;20216;-62
2022/01/08 06:00:38;;;;;;;4.63;3.50;;;3.20;99.90;;;;;;5081884;28;20212;-60
2022/01/08 06:03:07;;;;;;;8.30;5.27;;;3.20;99.90;;;;;;5067988;28;20679;-61
2022/01/08 06:05:34;;;;;;;8.43;5.73;;;3.20;99.90;;;;;;5089956;28;20196;-62
2022/01/08 06:08:01;;;;;;;9.57;5.77;;;3.20;99.90;;;;;;5083203;28;20605;-61
2022/01/08 06:10:28;;;;;;;9.80;5.77;;;3.30;99.90;;;;;;5065006;28;20196;-62
2022/01/08 06:12:55;;;;;;;7.27;4.40;;;3.30;99.90;;;;;;5062045;28;20224;-62
2022/01/08 06:15:22;;;;;;;12.93;7.00;;;3.30;99.90;;;;;;5065210;28;20212;-62
2022/01/08 06:17:49;;;;;;;9.17;5.63;;;3.30;99.90;;;;;;5082902;28;20258;-63
2022/01/08 06:20:18;;;;;;;12.73;6.53;;;3.30;99.90;;;;;;5068934;28;20294;-61
2022/01/08 06:22:45;;;;;;;10.17;5.33;;;3.20;99.90;;;;;;5086869;28;20530;-62
2022/01/08 06:25:12;;;;;;;8.77;4.90;;;3.20;99.90;;;;;;5090585;28;20200;-61
2022/01/08 06:27:39;;;;;;;7.37;4.63;;;3.20;99.90;;;;;;5081127;28;20201;-61
2022/01/08 06:30:07;;;;;;;7.53;4.57;;;3.10;99.90;;;;;;5070271;28;20208;-61
2022/01/08 06:32:34;;;;;;;8.70;4.80;;;3.20;99.90;;;;;;5090612;28;20196;-61
2022/01/08 06:35:02;;;;;;;10.07;5.17;;;3.20;99.90;;;;;;5078129;28;20193;-63
2022/01/08 06:37:30;;;;;;;10.03;4.90;;;3.20;99.90;;;;;;5090653;28;20699;-62
2022/01/08 06:39:57;;;;;;;8.13;4.63;;;3.20;99.90;;;;;;5070213;28;20197;-61
2022/01/08 06:42:24;;;;;;;7.90;4.93;;;3.20;99.90;;;;;;5090008;28;20197;-61
2022/01/08 06:44:51;;;;;;;23.50;11.53;;;3.20;99.90;;;;;;5078030;28;20556;-61
2022/01/08 06:47:18;;;;;;;15.80;8.93;;;3.20;99.90;;;;;;5055708;28;20274;-61
2022/01/08 06:49:46;;;;;;;15.30;7.63;;;3.20;99.90;;;;;;5086417;28;20189;-61
2022/01/08 06:52:13;;;;;;;13.70;6.73;;;3.20;99.90;;;;;;5088285;28;20717;-61
2022/01/08 06:54:41;;;;;;;12.33;6.30;;;3.20;99.90;;;;;;5083349;28;20282;-62
2022/01/08 06:57:08;;;;;;;11.77;6.30;;;3.20;99.90;;;;;;5085555;28;20793;-62
2022/01/08 06:59:35;;;;;;;10.47;5.67;;;3.10;99.90;;;;;;5074602;28;20664;-60
2022/01/08 07:02:03;;;;;;;9.13;5.10;;;3.10;99.90;;;;;;5084619;28;20614;-61
2022/01/08 07:04:30;;;;;;;9.07;5.20;;;3.10;99.90;;;;;;5064452;28;20263;-61
2022/01/08 07:06:58;;;;;;;11.67;5.73;;;3.10;99.90;;;;;;5084479;28;20734;-62
2022/01/08 07:09:26;;;;;;;11.20;5.70;;;3.10;99.90;;;;;;5077927;28;20553;-61
2022/01/08 07:11:54;;;;;;;9.87;5.43;;;3.10;99.90;;;;;;5082425;28;20598;-62
2022/01/08 07:14:21;;;;;;;9.10;5.27;;;3.10;99.90;;;;;;5061066;28;20222;-62
2022/01/08 07:16:49;;;;;;;17.03;7.17;;;3.10;99.90;;;;;;5088634;28;21073;-62
2022/01/08 07:19:18;;;;;;;9.30;5.83;;;3.10;99.90;;;;;;5057527;28;20205;-61
2022/01/08 07:21:45;;;;;;;12.37;6.07;;;3.20;99.90;;;;;;5061299;28;20197;-61
2022/01/08 07:24:12;;;;;;;11.97;6.70;;;3.20;99.90;;;;;;5081353;28;20292;-62
2022/01/08 07:26:39;;;;;;;17.87;9.30;;;3.20;99.90;;;;;;5068352;28;20205;-63
2022/01/08 07:29:08;;;;;;;11.17;6.70;;;3.20;99.90;;;;;;5080454;28;20196;-62
2022/01/08 07:31:35;;;;;;;8.83;5.80;;;3.20;99.90;;;;;;5074514;28;20276;-62
2022/01/08 07:34:02;;;;;;;13.40;6.37;;;3.30;99.90;;;;;;5080914;28;20618;-62
2022/01/08 07:36:30;;;;;;;12.50;7.33;;;3.30;99.90;;;;;;5083983;28;20189;-62
2022/01/08 07:38:57;;;;;;;16.57;8.10;;;3.30;99.90;;;;;;5087791;28;20209;-61
2022/01/08 07:41:24;;;;;;;12.20;6.77;;;3.30;99.90;;;;;;5066698;28;20209;-61
2022/01/08 07:43:51;;;;;;;14.80;7.70;;;3.30;99.90;;;;;;5068299;28;20609;-61
2022/01/08 07:46:19;;;;;;;12.33;6.43;;;3.30;99.90;;;;;;5055369;28;20644;-61
2022/01/08 07:48:47;;;;;;;12.33;6.87;;;3.40;99.90;;;;;;5086953;28;20207;-60
2022/01/08 07:51:14;;;;;;;13.63;7.20;;;3.30;99.90;;;;;;5086020;28;20299;-61
2022/01/08 07:53:41;;;;;;;11.73;7.13;;;3.30;99.90;;;;;;5081754;28;20196;-61
2022/01/08 07:56:08;;;;;;;8.57;5.60;;;3.30;99.90;;;;;;5086331;28;20232;-61
2022/01/08 07:58:35;;;;;;;14.30;7.90;;;3.30;99.90;;;;;;5062433;28;20212;-62
2022/01/08 08:01:02;;;;;;;14.60;7.70;;;3.40;99.90;;;;;;5081095;28;20200;-62
2022/01/08 08:03:31;;;;;;;13.70;8.17;;;3.40;99.90;;;;;;5066630;28;20204;-60
2022/01/08 08:05:58;;;;;;;10.63;6.77;;;3.40;99.90;;;;;;5082216;28;20197;-61
2022/01/08 08:08:25;;;;;;;11.83;7.00;;;3.40;99.90;;;;;;5080897;28;20275;-61
2022/01/08 08:10:52;;;;;;;9.57;6.10;;;3.40;99.90;;;;;;5062797;28;20215;-62
2022/01/08 08:13:21;;;;;;;20.00;10.17;;;3.40;99.90;;;;;;5085381;28;20267;-62
2022/01/08 08:15:49;;;;;;;19.47;11.43;;;3.30;99.90;;;;;;5082640;28;20555;-62
2022/01/08 08:18:16;;;;;;;21.90;11.73;;;3.30;99.90;;;;;;5086336;28;20610;-61
2022/01/08 08:20:45;;;;;;;23.40;12.57;;;3.30;99.90;;;;;;5079688;28;20193;-62
2022/01/08 08:23:12;;;;;;;20.40;11.97;;;3.30;99.90;;;;;;5092120;28;20192;-61
2022/01/08 08:25:39;;;;;;;24.33;13.30;;;3.30;99.90;;;;;;5074028;28;20242;-61
2022/01/08 08:28:07;;;;;;;24.83;11.97;;;3.30;99.90;;;;;;5085614;28;20193;-62
2022/01/08 08:30:34;;;;;;;21.27;11.27;;;3.30;99.90;;;;;;5074865;28;20200;-62
2022/01/08 08:33:02;;;;;;;20.97;10.23;;;3.20;99.90;;;;;;5077327;28;20288;-62
2022/01/08 08:35:29;;;;;;;19.57;9.97;;;3.30;99.90;;;;;;5075674;28;20208;-63
2022/01/08 08:37:58;;;;;;;26.27;14.13;;;3.30;99.90;;;;;;5091716;28;20209;-61
2022/01/08 08:40:25;;;;;;;28.90;14.43;;;3.30;99.90;;;;;;5065432;28;20196;-61
2022/01/08 08:42:52;;;;;;;22.47;11.80;;;3.30;99.90;;;;;;5073170;28;20200;-61
2022/01/08 08:45:20;;;;;;;23.37;10.97;;;3.30;99.90;;;;;;5092587;28;20196;-62
2022/01/08 08:47:47;;;;;;;19.40;9.77;;;3.30;99.90;;;;;;5090982;28;20559;-60
2022/01/08 08:50:16;;;;;;;21.10;9.83;;;3.30;99.90;;;;;;5086580;28;20610;-62
2022/01/08 08:52:43;;;;;;;21.40;11.23;;;3.30;99.90;;;;;;5076545;28;20204;-62
2022/01/08 08:55:13;;;;;;;24.63;13.90;;;3.40;99.90;;;;;;5089833;28;20224;-60
2022/01/08 08:57:41;;;;;;;22.43;11.63;;;3.40;99.90;;;;;;5065984;28;20201;-61
2022/01/08 09:00:09;;;;;;;29.50;13.97;;;3.40;99.90;;;;;;5088775;28;20571;-61
2022/01/08 09:02:37;;;;;;;29.07;14.67;;;3.40;99.90;;;;;;5082763;28;20189;-61
2022/01/08 09:05:05;;;;;;;36.07;17.27;;;3.40;99.90;;;;;;5068690;28;20204;-61
2022/01/08 09:07:33;;;;;;;34.40;17.03;;;3.30;99.90;;;;;;5081140;28;20193;-61
2022/01/08 09:10:00;;;;;;;28.43;13.93;;;3.30;99.90;;;;;;5079726;28;20192;-62
2022/01/08 09:12:28;;;;;;;33.53;16.40;;;3.20;99.90;;;;;;5058086;28;20561;-61
2022/01/08 09:14:56;;;;;;;29.90;13.43;;;3.30;99.90;;;;;;5059552;28;20218;-61
2022/01/08 09:17:24;;;;;;;20.87;11.00;;;3.20;99.90;;;;;;5081822;28;20541;-61
2022/01/08 09:19:52;;;;;;;26.67;12.77;;;3.20;99.90;;;;;;5082323;28;20211;-61
2022/01/08 09:22:19;;;;;;;23.07;11.47;;;3.30;99.90;;;;;;5084989;28;20238;-62
2022/01/08 09:24:47;;;;;;;38.13;16.07;;;3.30;99.90;;;;;;5073447;28;20200;-61
2022/01/08 09:27:14;;;;;;;33.00;14.87;;;3.30;99.90;;;;;;5080337;28;20275;-61
2022/01/08 09:29:42;;;;;;;32.63;14.77;;;3.30;99.90;;;;;;5090495;28;20655;-61
2022/01/08 09:32:10;;;;;;;31.30;14.73;;;3.30;99.90;;;;;;5073827;28;20204;-61
2022/01/08 09:34:38;;;;;;;26.20;12.90;;;3.40;99.90;;;;;;5062349;28;20295;-61
2022/01/08 09:37:05;;;;;;;36.23;16.27;;;3.40;99.90;;;;;;5092218;28;20192;-62
2022/01/08 09:39:33;;;;;;;29.57;13.77;;;3.40;99.90;;;;;;5089960;28;20258;-62
2022/01/08 09:42:00;;;;;;;33.37;15.10;;;3.40;99.90;;;;;;5080333;28;20200;-62
2022/01/08 09:44:28;;;;;;;34.17;16.03;;;3.50;99.90;;;;;;5070583;28;20211;-62
2022/01/08 09:46:56;;;;;;;41.87;18.67;;;3.50;99.90;;;;;;5089173;28;20211;-62
2022/01/08 09:49:23;;;;;;;41.53;17.73;;;3.50;99.90;;;;;;5071841;28;20192;-62
2022/01/08 09:51:50;;;;;;;45.23;18.70;;;3.40;99.90;;;;;;5075254;28;20196;-61
2022/01/08 09:54:18;;;;;;;32.23;15.33;;;3.40;99.90;;;;;;5085473;28;20264;-61
2022/01/08 09:56:45;;;;;;;38.97;17.00;;;3.50;99.90;;;;;;5086857;28;20273;-61
2022/01/08 09:59:12;;;;;;;40.10;18.37;;;3.50;99.90;;;;;;5083927;28;20212;-61
2022/01/08 10:01:39;;;;;;;33.87;14.87;;;3.50;99.90;;;;;;5071563;28;20207;-62
2022/01/08 10:04:07;;;;;;;46.10;20.03;;;3.60;99.90;;;;;;5082460;28;20267;-62
2022/01/08 10:06:36;;;;;;;43.90;19.20;;;3.60;99.90;;;;;;5068927;28;20196;-61
2022/01/08 10:09:04;;;;;;;38.33;15.97;;;3.70;99.90;;;;;;5087097;28;20192;-62
2022/01/08 10:11:32;;;;;;;28.63;12.80;;;3.70;99.90;;;;;;5079678;28;20219;-62
2022/01/08 10:14:04;;;;;;;31.80;15.27;;;3.80;99.90;;;;;;5076878;28;20200;-61
2022/01/08 10:19:21;;;;;;;38.07;17.50;;;3.80;99.90;;;;;;5077544;28;20576;-61
2022/01/08 10:21:50;;;;;;;29.50;14.63;;;3.30;99.90;;;;;;5086080;28;20261;-62
2022/01/08 10:24:22;;;;;;;42.23;17.43;;;3.80;99.90;;;;;;5077815;28;20209;-62
2022/01/08 10:26:52;;;;;;;35.60;16.13;;;3.80;99.90;;;;;;5086978;28;20200;-62
2022/01/08 10:29:21;;;;;;;30.10;14.73;;;3.80;99.90;;;;;;5071559;28;20211;-62
2022/01/08 10:31:50;;;;;;;31.83;15.47;;;3.70;99.90;;;;;;5081164;28;20620;-60
2022/01/08 10:34:21;;;;;;;28.07;13.60;;;3.80;99.90;;;;;;5079017;28;20278;-61
2022/01/08 10:36:50;;;;;;;29.23;13.27;;;3.80;99.90;;;;;;5073778;28;20188;-62
2022/01/08 10:39:21;;;;;;;27.80;12.53;;;3.80;99.90;;;;;;5083478;28;20253;-62
2022/01/08 10:41:49;;;;;;;21.23;10.73;;;3.80;99.90;;;;;;5084266;28;20285;-60
2022/01/08 10:44:20;;;;;;;25.17;12.63;;;3.80;99.90;;;;;;5080491;28;20188;-62
2022/01/08 10:46:56;;;;;;;22.00;11.60;;;3.80;99.90;;;;;;5075182;28;20584;-63
2022/01/08 10:49:33;;;;;;;23.17;12.40;;;3.80;99.90;;;;;;5079937;28;20370;-62
2022/01/08 10:52:02;;;;;;;22.73;11.90;;;3.80;99.90;;;;;;5072295;28;20189;-62
2022/01/08 10:54:30;;;;;;;24.57;12.43;;;3.80;99.90;;;;;;5070213;28;20608;-62
2022/01/08 10:57:00;;;;;;;26.07;13.57;;;3.90;99.90;;;;;;5083576;28;20188;-62
2022/01/08 10:59:28;;;;;;;23.63;11.50;;;3.90;99.90;;;;;;5080891;28;20211;-62
2022/01/08 11:01:58;;;;;;;19.40;10.27;;;3.90;99.90;;;;;;5089610;28;20223;-61
2022/01/08 11:04:46;;;;;;;18.13;9.50;;;4.00;99.90;;;;;;5054211;28;20201;-63
2022/01/08 11:07:16;;;;;;;18.20;10.30;;;3.90;99.90;;;;;;5061638;28;20212;-62
2022/01/08 11:09:45;;;;;;;17.37;8.93;;;4.00;99.90;;;;;;5078784;28;20208;-62
2022/01/08 11:12:14;;;;;;;19.13;10.10;;;4.00;99.90;;;;;;5076172;28;20279;-61
2022/01/08 11:17:33;;;;;;;13.70;7.47;;;4.00;99.90;;;;;;5080548;28;20181;-61
2022/01/08 11:20:06;;;;;;;22.47;11.23;;;4.10;99.90;;;;;;5065546;28;20561;-61
2022/01/08 11:22:35;;;;;;;18.97;10.10;;;4.10;99.90;;;;;;5081936;28;20188;-61
2022/01/08 11:25:06;;;;;;;16.57;8.97;;;4.20;99.90;;;;;;5081171;28;20197;-61
2022/01/08 11:27:45;;;;;;;16.73;8.43;;;4.10;99.90;;;;;;5080575;28;20192;-61
2022/01/08 11:30:16;;;;;;;14.30;7.90;;;4.10;99.90;;;;;;5073243;28;20284;-61
2022/01/08 11:32:44;;;;;;;19.23;8.60;;;4.00;99.90;;;;;;5072458;28;20610;-60
2022/01/08 11:35:13;;;;;;;11.70;7.00;;;4.00;99.90;;;;;;5073711;28;20620;-61
2022/01/08 11:37:46;;;;;;;12.37;6.97;;;4.00;99.90;;;;;;5085167;28;20193;-62
2022/01/08 11:40:15;;;;;;;11.93;6.50;;;4.10;99.90;;;;;;5081611;28;20208;-62
2022/01/08 11:42:43;;;;;;;11.77;6.23;;;4.10;99.90;;;;;;5092734;28;20192;-61
2022/01/08 11:45:15;;;;;;;9.63;5.63;;;4.20;99.90;;;;;;5083059;28;20655;-61
2022/01/08 11:47:48;;;;;;;8.80;5.43;;;4.30;99.90;;;;;;5073726;28;20196;-61
2022/01/08 11:50:21;;;;;;;11.60;6.13;;;4.30;99.90;;;;;;5090368;28;20200;-62
2022/01/08 11:53:08;;;;;;;11.57;5.67;;;4.20;99.90;;;;;;5080648;28;20193;-62
2022/01/08 11:55:36;;;;;;;8.93;5.63;;;4.30;99.90;;;;;;5089471;28;20637;-61
2022/01/08 11:58:15;;;;;;;14.77;7.77;;;4.20;99.90;;;;;;5090660;28;20226;-61
2022/01/08 12:00:51;;;;;;;11.90;6.60;;;4.20;99.90;;;;;;5076902;28;20196;-61
2022/01/08 12:03:24;;;;;;;11.30;6.60;;;4.20;99.90;;;;;;5084122;28;20192;-61
2022/01/08 12:05:53;;;;;;;37.70;16.97;;;4.20;99.90;;;;;;5086861;28;20200;-61
2022/01/08 12:08:20;;;;;;;25.33;13.13;;;4.20;99.90;;;;;;5083014;28;20232;-62
2022/01/08 12:10:57;;;;;;;24.00;10.73;;;4.10;99.90;;;;;;5084399;28;20200;-62
2022/01/08 12:13:44;;;;;;;16.87;9.27;;;4.10;99.90;;;;;;5090471;28;20214;-62
2022/01/08 12:16:33;;;;;;;15.53;8.63;;;4.10;99.90;;;;;;5088754;28;20296;-61
2022/01/08 12:19:02;;;;;;;23.77;11.07;;;4.10;99.90;;;;;;5084020;28;20208;-62
2022/01/08 12:21:36;;;;;;;18.23;10.10;;;4.10;99.90;;;;;;5085071;28;20254;-61
2022/01/08 12:24:33;;;;;;;15.53;8.70;;;4.10;99.90;;;;;;5089921;28;20598;-61
2022/01/08 12:27:02;;;;;;;15.43;8.33;;;4.10;99.90;;;;;;5086232;28;20664;-60
2022/01/08 12:29:37;;;;;;;12.60;6.87;;;4.10;99.90;;;;;;5078489;28;20732;-61
2022/01/08 12:32:33;;;;;;;9.70;6.07;;;4.10;99.90;;;;;;5078483;28;20242;-62
2022/01/08 12:35:22;;;;;;;10.37;6.40;;;4.20;99.90;;;;;;5053843;28;20211;-61
2022/01/08 12:37:52;;;;;;;11.70;6.67;;;4.20;99.90;;;;;;5081369;28;20683;-62
2022/01/08 12:40:37;;;;;;;9.20;5.60;;;4.30;99.90;;;;;;5091042;28;20205;-61
2022/01/08 12:43:21;;;;;;;15.00;8.53;;;4.30;99.90;;;;;;5064719;28;20204;-61
2022/01/08 12:45:50;;;;;;;12.77;6.80;;;4.40;99.90;;;;;;5078536;28;20204;-62
2022/01/08 12:48:18;;;;;;;19.03;9.63;;;4.30;99.90;;;;;;5090035;28;20192;-60
2022/01/08 12:50:56;;;;;;;12.30;7.23;;;4.40;99.90;;;;;;5084500;28;20726;-62
2022/01/08 12:53:30;;;;;;;10.57;6.50;;;4.40;99.90;;;;;;5085903;28;20668;-61
2022/01/08 12:56:16;;;;;;;9.83;6.20;;;4.40;99.90;;;;;;5080645;28;20591;-61
2022/01/08 12:58:53;;;;;;;9.33;5.77;;;4.40;99.90;;;;;;5071825;28;20192;-61
2022/01/08 13:01:24;;;;;;;7.37;4.93;;;4.30;99.90;;;;;;5084929;28;20556;-61
2022/01/08 13:03:56;;;;;;;9.27;5.60;;;4.30;99.90;;;;;;5085664;28;20196;-62
2022/01/08 13:06:35;;;;;;;7.63;4.47;;;4.30;99.90;;;;;;5085585;28;20215;-62
2022/01/08 13:09:07;;;;;;;8.13;5.13;;;4.30;99.90;;;;;;5065946;28;20669;-62
2022/01/08 13:11:36;;;;;;;6.33;4.37;;;4.30;99.90;;;;;;5079466;28;20201;-61
2022/01/08 13:14:05;;;;;;;10.57;6.10;;;4.30;99.90;;;;;;5077632;28;20201;-60
2022/01/08 13:16:36;;;;;;;21.50;10.63;;;4.30;99.90;;;;;;5081390;28;20267;-62